sensor_id;sensor_type;location;lat;lon;timestamp;pressure;altitude;pressure_sealevel;temperature;humidity
13312;BME280;34033;48.672;9.376;2024-01-27T00:00:35;100259.94;;;6.08;74.80
13312;BME280;34033;48.672;9.376;2024-01-27T00:03:00;100269.22;;;6.03;74.64
13312;BME280;34033;48.672;9.376;2024-01-27T00:05:26;100274.06;;;5.98;74.75
13312;BME280;34033;48.672;9.376;2024-01-27T00:07:51;100261.44;;;5.92;74.92
13312;BME280;34033;48.672;9.376;2024-01-27T00:10:16;100276.91;;;5.84;75.35
13312;BME280;34033;48.672;9.376;2024-01-27T00:12:42;100281.19;;;5.90;75.05
13312;BME280;34033;48.672;9.376;2024-01-27T00:15:07;100284.72;;;5.68;77.22
13312;BME280;34033;48.672;9.376;2024-01-27T00:17:34;100283.56;;;5.83;76.83
13312;BME280;34033;48.672;9.376;2024-01-27T00:20:00;100288.28;;;5.82;76.00
13312;BME280;34033;48.672;9.376;2024-01-27T00:22:26;100287.78;;;5.80;75.59
13312;BME280;34033;48.672;9.376;2024-01-27T00:24:51;100298.28;;;5.83;75.52
13312;BME280;34033;48.672;9.376;2024-01-27T00:27:17;100302.78;;;5.79;76.08
13312;BME280;34033;48.672;9.376;2024-01-27T00:29:42;100309.84;;;5.63;76.18
13312;BME280;34033;48.672;9.376;2024-01-27T00:32:08;100302.03;;;5.65;76.27
13312;BME280;34033;48.672;9.376;2024-01-27T00:34:33;100297.72;;;5.59;75.87
13312;BME280;34033;48.672;9.376;2024-01-27T00:36:58;100292.81;;;5.56;75.82
13312;BME280;34033;48.672;9.376;2024-01-27T00:39:24;100302.25;;;5.55;75.08
13312;BME280;34033;48.672;9.376;2024-01-27T00:41:49;100298.97;;;5.53;75.19
13312;BME280;34033;48.672;9.376;2024-01-27T00:44:14;100302.25;;;5.55;75.01
13312;BME280;34033;48.672;9.376;2024-01-27T00:46:40;100309.47;;;5.56;75.31
13312;BME280;34033;48.672;9.376;2024-01-27T00:49:05;100306.47;;;5.53;75.35
13312;BME280;34033;48.672;9.376;2024-01-27T00:51:31;100324.56;;;5.50;75.13
13312;BME280;34033;48.672;9.376;2024-01-27T00:53:57;100319.84;;;5.51;75.11
13312;BME280;34033;48.672;9.376;2024-01-27T00:56:22;100312.78;;;5.44;75.09
13312;BME280;34033;48.672;9.376;2024-01-27T00:58:47;100317.09;;;5.37;75.57
13312;BME280;34033;48.672;9.376;2024-01-27T01:01:13;100314.63;;;5.35;75.34
13312;BME280;34033;48.672;9.376;2024-01-27T01:03:38;100316.19;;;5.28;75.17
13312;BME280;34033;48.672;9.376;2024-01-27T01:06:03;100317.19;;;5.32;75.19
13312;BME280;34033;48.672;9.376;2024-01-27T01:08:29;100313.59;;;5.31;75.40
13312;BME280;34033;48.672;9.376;2024-01-27T01:10:54;100317.50;;;5.30;75.03
13312;BME280;34033;48.672;9.376;2024-01-27T01:13:20;100323.69;;;5.27;75.10
13312;BME280;34033;48.672;9.376;2024-01-27T01:15:45;100324.19;;;5.29;75.30
13312;BME280;34033;48.672;9.376;2024-01-27T01:18:10;100337.31;;;5.24;75.50
13312;BME280;34033;48.672;9.376;2024-01-27T01:20:36;100336.84;;;5.22;75.96
13312;BME280;34033;48.672;9.376;2024-01-27T01:23:01;100334.78;;;5.14;75.92
13312;BME280;34033;48.672;9.376;2024-01-27T01:25:26;100341.34;;;5.18;76.44
13312;BME280;34033;48.672;9.376;2024-01-27T01:27:52;100343.19;;;5.09;76.70
13312;BME280;34033;48.672;9.376;2024-01-27T01:30:17;100342.88;;;4.96;77.54
13312;BME280;34033;48.672;9.376;2024-01-27T01:32:43;100349.56;;;4.95;77.40
13312;BME280;34033;48.672;9.376;2024-01-27T01:35:10;100338.25;;;4.92;77.77
13312;BME280;34033;48.672;9.376;2024-01-27T01:37:35;100349.34;;;4.92;78.06
13312;BME280;34033;48.672;9.376;2024-01-27T01:40:01;100337.97;;;4.93;78.17
13312;BME280;34033;48.672;9.376;2024-01-27T01:42:26;100346.91;;;4.90;78.46
13312;BME280;34033;48.672;9.376;2024-01-27T01:44:51;100340.84;;;4.88;77.86
13312;BME280;34033;48.672;9.376;2024-01-27T01:47:17;100334.75;;;4.86;77.57
13312;BME280;34033;48.672;9.376;2024-01-27T01:49:43;100344.13;;;4.90;77.94
13312;BME280;34033;48.672;9.376;2024-01-27T01:52:09;100341.13;;;4.87;78.06
13312;BME280;34033;48.672;9.376;2024-01-27T01:54:35;100342.78;;;4.88;76.86
13312;BME280;34033;48.672;9.376;2024-01-27T01:57:02;100344.53;;;4.84;77.57
13312;BME280;34033;48.672;9.376;2024-01-27T01:59:28;100338.25;;;4.78;77.42
13312;BME280;34033;48.672;9.376;2024-01-27T02:01:53;100336.63;;;4.77;77.51
13312;BME280;34033;48.672;9.376;2024-01-27T02:04:19;100344.41;;;4.75;76.89
13312;BME280;34033;48.672;9.376;2024-01-27T02:06:44;100358.78;;;4.77;77.42
13312;BME280;34033;48.672;9.376;2024-01-27T02:09:09;100352.22;;;4.73;77.03
13312;BME280;34033;48.672;9.376;2024-01-27T02:11:35;100353.72;;;4.66;77.54
13312;BME280;34033;48.672;9.376;2024-01-27T02:14:00;100355.56;;;4.70;76.90
13312;BME280;34033;48.672;9.376;2024-01-27T02:16:26;100370.84;;;4.54;77.96
13312;BME280;34033;48.672;9.376;2024-01-27T02:18:51;100372.03;;;4.48;78.29
13312;BME280;34033;48.672;9.376;2024-01-27T02:21:16;100372.44;;;4.41;79.06
13312;BME280;34033;48.672;9.376;2024-01-27T02:23:42;100374.63;;;4.44;79.12
13312;BME280;34033;48.672;9.376;2024-01-27T02:26:07;100387.63;;;4.44;78.97
13312;BME280;34033;48.672;9.376;2024-01-27T02:28:32;100398.09;;;4.47;78.73
13312;BME280;34033;48.672;9.376;2024-01-27T02:30:58;100397.81;;;4.48;79.28
13312;BME280;34033;48.672;9.376;2024-01-27T02:33:28;100398.63;;;4.49;78.08
13312;BME280;34033;48.672;9.376;2024-01-27T02:35:53;100409.13;;;4.52;77.89
13312;BME280;34033;48.672;9.376;2024-01-27T02:38:18;100414.31;;;4.53;77.96
13312;BME280;34033;48.672;9.376;2024-01-27T02:40:44;100416.59;;;4.51;77.65
13312;BME280;34033;48.672;9.376;2024-01-27T02:43:09;100412.38;;;4.54;76.28
13312;BME280;34033;48.672;9.376;2024-01-27T02:45:34;100422.72;;;4.48;76.60
13312;BME280;34033;48.672;9.376;2024-01-27T02:48:00;100429.19;;;4.44;77.20
13312;BME280;34033;48.672;9.376;2024-01-27T02:50:25;100421.97;;;4.43;76.49
13312;BME280;34033;48.672;9.376;2024-01-27T02:52:50;100419.22;;;4.43;75.68
13312;BME280;34033;48.672;9.376;2024-01-27T02:55:16;100419.00;;;4.39;75.86
13312;BME280;34033;48.672;9.376;2024-01-27T02:57:41;100430.38;;;4.38;75.79
13312;BME280;34033;48.672;9.376;2024-01-27T03:00:07;100424.84;;;4.38;75.40
13312;BME280;34033;48.672;9.376;2024-01-27T03:02:32;100420.00;;;4.30;75.20
13312;BME280;34033;48.672;9.376;2024-01-27T03:04:58;100418.34;;;4.29;76.14
13312;BME280;34033;48.672;9.376;2024-01-27T03:07:23;100426.34;;;4.30;75.07
13312;BME280;34033;48.672;9.376;2024-01-27T03:09:48;100431.88;;;4.30;75.08
13312;BME280;34033;48.672;9.376;2024-01-27T03:12:14;100437.19;;;4.27;75.11
13312;BME280;34033;48.672;9.376;2024-01-27T03:14:41;100443.56;;;4.27;75.27
13312;BME280;34033;48.672;9.376;2024-01-27T03:17:07;100441.84;;;4.31;76.11
13312;BME280;34033;48.672;9.376;2024-01-27T03:19:32;100430.47;;;4.33;76.50
13312;BME280;34033;48.672;9.376;2024-01-27T03:21:58;100428.34;;;4.25;76.78
13312;BME280;34033;48.672;9.376;2024-01-27T03:24:23;100436.16;;;4.23;76.94
13312;BME280;34033;48.672;9.376;2024-01-27T03:26:48;100425.38;;;4.21;76.56
13312;BME280;34033;48.672;9.376;2024-01-27T03:29:14;100431.44;;;4.23;77.23
13312;BME280;34033;48.672;9.376;2024-01-27T03:31:39;100433.59;;;4.26;76.66
13312;BME280;34033;48.672;9.376;2024-01-27T03:34:05;100427.78;;;4.28;76.48
13312;BME280;34033;48.672;9.376;2024-01-27T03:36:30;100428.34;;;4.25;76.63
13312;BME280;34033;48.672;9.376;2024-01-27T03:38:57;100435.88;;;4.24;76.51
13312;BME280;34033;48.672;9.376;2024-01-27T03:41:22;100436.66;;;4.25;76.35
13312;BME280;34033;48.672;9.376;2024-01-27T03:43:48;100448.28;;;4.27;76.92
13312;BME280;34033;48.672;9.376;2024-01-27T03:46:13;100457.69;;;4.26;76.34
13312;BME280;34033;48.672;9.376;2024-01-27T03:48:38;100458.53;;;4.26;76.22
13312;BME280;34033;48.672;9.376;2024-01-27T03:51:04;100457.13;;;4.29;75.53
13312;BME280;34033;48.672;9.376;2024-01-27T03:53:29;100452.69;;;4.28;75.65
13312;BME280;34033;48.672;9.376;2024-01-27T03:55:55;100460.78;;;4.24;76.28
13312;BME280;34033;48.672;9.376;2024-01-27T03:58:23;100461.16;;;4.17;76.33
13312;BME280;34033;48.672;9.376;2024-01-27T04:00:49;100455.63;;;4.17;76.41
13312;BME280;34033;48.672;9.376;2024-01-27T04:03:14;100451.84;;;4.08;76.46
13312;BME280;34033;48.672;9.376;2024-01-27T04:05:39;100460.69;;;4.10;76.66
13312;BME280;34033;48.672;9.376;2024-01-27T04:08:05;100466.84;;;4.07;76.94
13312;BME280;34033;48.672;9.376;2024-01-27T04:10:31;100469.91;;;4.06;76.69
13312;BME280;34033;48.672;9.376;2024-01-27T04:12:57;100464.44;;;4.01;76.84
13312;BME280;34033;48.672;9.376;2024-01-27T04:15:22;100467.09;;;3.87;77.70
13312;BME280;34033;48.672;9.376;2024-01-27T04:17:47;100462.47;;;3.83;77.80
13312;BME280;34033;48.672;9.376;2024-01-27T04:20:13;100464.13;;;3.84;78.30
13312;BME280;34033;48.672;9.376;2024-01-27T04:22:38;100458.31;;;3.85;77.98
13312;BME280;34033;48.672;9.376;2024-01-27T04:25:04;100456.56;;;3.89;77.96
13312;BME280;34033;48.672;9.376;2024-01-27T04:27:30;100456.88;;;3.88;77.78
13312;BME280;34033;48.672;9.376;2024-01-27T04:29:55;100470.00;;;3.58;78.89
13312;BME280;34033;48.672;9.376;2024-01-27T04:32:22;100467.38;;;3.67;79.23
13312;BME280;34033;48.672;9.376;2024-01-27T04:34:49;100462.69;;;3.67;79.08
13312;BME280;34033;48.672;9.376;2024-01-27T04:37:14;100468.97;;;3.73;79.21
13312;BME280;34033;48.672;9.376;2024-01-27T04:39:39;100478.91;;;3.74;78.39
13312;BME280;34033;48.672;9.376;2024-01-27T04:42:05;100481.63;;;3.79;78.28
13312;BME280;34033;48.672;9.376;2024-01-27T04:44:33;100482.44;;;3.80;78.39
13312;BME280;34033;48.672;9.376;2024-01-27T04:46:59;100475.47;;;3.82;78.41
13312;BME280;34033;48.672;9.376;2024-01-27T04:49:25;100474.38;;;3.83;78.82
13312;BME280;34033;48.672;9.376;2024-01-27T04:51:50;100477.06;;;3.88;78.09
13312;BME280;34033;48.672;9.376;2024-01-27T04:54:16;100480.66;;;3.89;78.34
13312;BME280;34033;48.672;9.376;2024-01-27T04:56:41;100481.56;;;3.84;78.43
13312;BME280;34033;48.672;9.376;2024-01-27T04:59:06;100479.06;;;3.83;78.14
13312;BME280;34033;48.672;9.376;2024-01-27T05:01:32;100482.13;;;3.81;78.54
13312;BME280;34033;48.672;9.376;2024-01-27T05:03:57;100475.94;;;3.89;78.44
13312;BME280;34033;48.672;9.376;2024-01-27T05:06:23;100482.81;;;3.92;77.68
13312;BME280;34033;48.672;9.376;2024-01-27T05:08:48;100486.25;;;3.84;77.99
13312;BME280;34033;48.672;9.376;2024-01-27T05:11:13;100480.66;;;3.89;77.70
13312;BME280;34033;48.672;9.376;2024-01-27T05:13:40;100480.66;;;3.89;77.61
13312;BME280;34033;48.672;9.376;2024-01-27T05:16:05;100479.25;;;3.91;77.18
13312;BME280;34033;48.672;9.376;2024-01-27T05:18:31;100480.88;;;3.92;77.66
13312;BME280;34033;48.672;9.376;2024-01-27T05:20:56;100479.47;;;3.95;77.34
13312;BME280;34033;48.672;9.376;2024-01-27T05:23:22;100490.31;;;3.91;77.40
13312;BME280;34033;48.672;9.376;2024-01-27T05:25:48;100486.19;;;3.89;77.02
13312;BME280;34033;48.672;9.376;2024-01-27T05:28:13;100479.00;;;3.88;76.96
13312;BME280;34033;48.672;9.376;2024-01-27T05:30:39;100483.19;;;3.85;77.16
13312;BME280;34033;48.672;9.376;2024-01-27T05:33:04;100486.63;;;3.77;77.74
13312;BME280;34033;48.672;9.376;2024-01-27T05:35:29;100482.53;;;3.69;77.57
13312;BME280;34033;48.672;9.376;2024-01-27T05:37:55;100480.09;;;3.68;77.70
13312;BME280;34033;48.672;9.376;2024-01-27T05:40:20;100489.28;;;3.63;76.82
13312;BME280;34033;48.672;9.376;2024-01-27T05:42:45;100492.81;;;3.69;76.96
13312;BME280;34033;48.672;9.376;2024-01-27T05:45:11;100493.63;;;3.69;77.08
13312;BME280;34033;48.672;9.376;2024-01-27T05:47:36;100493.69;;;3.64;77.70
13312;BME280;34033;48.672;9.376;2024-01-27T05:50:02;100498.38;;;3.64;77.37
13312;BME280;34033;48.672;9.376;2024-01-27T05:52:28;100502.19;;;3.20;80.49
13312;BME280;34033;48.672;9.376;2024-01-27T05:54:53;100498.22;;;3.03;81.78
13312;BME280;34033;48.672;9.376;2024-01-27T05:57:19;100483.38;;;3.22;80.70
13312;BME280;34033;48.672;9.376;2024-01-27T05:59:44;100498.78;;;3.28;79.31
13312;BME280;34033;48.672;9.376;2024-01-27T06:02:10;100499.78;;;3.38;77.35
13312;BME280;34033;48.672;9.376;2024-01-27T06:04:35;100500.06;;;3.41;77.17
13312;BME280;34033;48.672;9.376;2024-01-27T06:07:00;100485.41;;;3.41;77.41
13312;BME280;34033;48.672;9.376;2024-01-27T06:09:26;100488.44;;;3.39;78.18
13312;BME280;34033;48.672;9.376;2024-01-27T06:11:51;100493.16;;;3.39;77.64
13312;BME280;34033;48.672;9.376;2024-01-27T06:14:16;100506.69;;;3.40;76.39
13312;BME280;34033;48.672;9.376;2024-01-27T06:16:42;100506.69;;;3.40;77.08
13312;BME280;34033;48.672;9.376;2024-01-27T06:19:07;100502.56;;;3.38;77.04
13312;BME280;34033;48.672;9.376;2024-01-27T06:21:32;100507.53;;;3.41;77.17
13312;BME280;34033;48.672;9.376;2024-01-27T06:23:58;100501.69;;;3.42;77.28
13312;BME280;34033;48.672;9.376;2024-01-27T06:26:23;100508.56;;;3.45;76.05
13312;BME280;34033;48.672;9.376;2024-01-27T06:28:48;100508.28;;;3.46;75.96
13312;BME280;34033;48.672;9.376;2024-01-27T06:31:15;100516.31;;;3.43;75.58
13312;BME280;34033;48.672;9.376;2024-01-27T06:33:41;100512.50;;;3.39;75.09
13312;BME280;34033;48.672;9.376;2024-01-27T06:36:06;100515.28;;;3.39;74.62
13312;BME280;34033;48.672;9.376;2024-01-27T06:38:34;100517.75;;;3.40;74.64
13312;BME280;34033;48.672;9.376;2024-01-27T06:41:00;100519.97;;;3.38;74.97
13312;BME280;34033;48.672;9.376;2024-01-27T06:43:25;100525.22;;;3.40;75.63
13312;BME280;34033;48.672;9.376;2024-01-27T06:45:50;100531.88;;;3.39;75.57
13312;BME280;34033;48.672;9.376;2024-01-27T06:48:16;100541.59;;;3.36;75.03
13312;BME280;34033;48.672;9.376;2024-01-27T06:50:41;100538.81;;;3.36;75.44
13312;BME280;34033;48.672;9.376;2024-01-27T06:53:06;100541.03;;;3.34;74.79
13312;BME280;34033;48.672;9.376;2024-01-27T06:55:32;100541.25;;;3.38;75.02
13312;BME280;34033;48.672;9.376;2024-01-27T06:57:57;100537.94;;;3.41;75.55
13312;BME280;34033;48.672;9.376;2024-01-27T07:00:22;100535.50;;;3.34;76.01
13312;BME280;34033;48.672;9.376;2024-01-27T07:02:48;100535.72;;;3.38;75.92
13312;BME280;34033;48.672;9.376;2024-01-27T07:05:13;100540.53;;;3.27;76.67
13312;BME280;34033;48.672;9.376;2024-01-27T07:07:39;100546.34;;;3.30;76.59
13312;BME280;34033;48.672;9.376;2024-01-27T07:10:05;100541.38;;;3.27;76.65
13312;BME280;34033;48.672;9.376;2024-01-27T07:12:33;100539.81;;;3.16;76.87
13312;BME280;34033;48.672;9.376;2024-01-27T07:14:58;100532.63;;;3.15;77.15
13312;BME280;34033;48.672;9.376;2024-01-27T07:17:25;100537.06;;;3.45;77.03
13312;BME280;34033;48.672;9.376;2024-01-27T07:19:51;100544.22;;;3.70;74.06
13312;BME280;34033;48.672;9.376;2024-01-27T07:22:16;100544.66;;;3.82;74.33
13312;BME280;34033;48.672;9.376;2024-01-27T07:24:41;100552.31;;;3.90;73.58
13312;BME280;34033;48.672;9.376;2024-01-27T07:27:07;100554.59;;;3.83;73.44
13312;BME280;34033;48.672;9.376;2024-01-27T07:29:32;100549.66;;;3.80;73.18
13312;BME280;34033;48.672;9.376;2024-01-27T07:31:57;100551.22;;;3.86;73.66
13312;BME280;34033;48.672;9.376;2024-01-27T07:34:23;100556.13;;;3.94;72.94
13312;BME280;34033;48.672;9.376;2024-01-27T07:36:48;100549.47;;;4.38;83.98
13312;BME280;34033;48.672;9.376;2024-01-27T07:39:14;100545.34;;;4.35;76.48
13312;BME280;34033;48.672;9.376;2024-01-27T07:41:40;100544.00;;;4.51;73.09
13312;BME280;34033;48.672;9.376;2024-01-27T07:44:10;100549.41;;;4.61;72.88
13312;BME280;34033;48.672;9.376;2024-01-27T07:46:36;100531.13;;;4.79;71.36
13312;BME280;34033;48.672;9.376;2024-01-27T07:49:02;100537.41;;;4.85;70.92
13312;BME280;34033;48.672;9.376;2024-01-27T07:51:28;100536.69;;;4.93;70.92
13312;BME280;34033;48.672;9.376;2024-01-27T07:53:53;100535.31;;;5.09;69.81
13312;BME280;34033;48.672;9.376;2024-01-27T07:56:18;100537.25;;;5.09;69.27
13312;BME280;34033;48.672;9.376;2024-01-27T07:58:44;100539.00;;;5.04;69.33
13312;BME280;34033;48.672;9.376;2024-01-27T08:01:09;100536.03;;;5.01;69.36
13312;BME280;34033;48.672;9.376;2024-01-27T08:03:34;100545.75;;;4.98;70.13
13312;BME280;34033;48.672;9.376;2024-01-27T08:06:04;100544.44;;;4.96;69.93
13312;BME280;34033;48.672;9.376;2024-01-27T08:08:30;100545.75;;;4.98;69.56
13312;BME280;34033;48.672;9.376;2024-01-27T08:10:55;100540.13;;;5.03;69.46
13312;BME280;34033;48.672;9.376;2024-01-27T08:13:21;100535.59;;;5.08;69.82
13312;BME280;34033;48.672;9.376;2024-01-27T08:15:46;100548.69;;;5.80;100.00
13312;BME280;34033;48.672;9.376;2024-01-27T08:18:11;100543.22;;;5.48;87.67
13312;BME280;34033;48.672;9.376;2024-01-27T08:20:37;100545.56;;;5.41;75.93
13312;BME280;34033;48.672;9.376;2024-01-27T08:23:02;100543.50;;;5.33;73.01
13312;BME280;34033;48.672;9.376;2024-01-27T08:25:28;100551.91;;;5.28;72.21
13312;BME280;34033;48.672;9.376;2024-01-27T08:27:53;100552.59;;;5.20;71.86
13312;BME280;34033;48.672;9.376;2024-01-27T08:30:19;100541.59;;;5.15;71.90
13312;BME280;34033;48.672;9.376;2024-01-27T08:32:44;100544.91;;;5.17;71.82
13312;BME280;34033;48.672;9.376;2024-01-27T08:35:09;100537.59;;;5.21;71.97
13312;BME280;34033;48.672;9.376;2024-01-27T08:37:35;100543.69;;;5.23;71.65
13312;BME280;34033;48.672;9.376;2024-01-27T08:40:07;100538.22;;;6.18;100.00
13312;BME280;34033;48.672;9.376;2024-01-27T08:42:33;100537.91;;;6.92;100.00
13312;BME280;34033;48.672;9.376;2024-01-27T08:44:58;100530.13;;;7.55;100.00
13312;BME280;34033;48.672;9.376;2024-01-27T08:47:24;100532.63;;;7.04;100.00
13312;BME280;34033;48.672;9.376;2024-01-27T08:49:49;100527.78;;;6.74;87.58
13312;BME280;34033;48.672;9.376;2024-01-27T08:52:14;100523.97;;;6.47;78.11
13312;BME280;34033;48.672;9.376;2024-01-27T08:54:40;100525.13;;;6.33;74.59
13312;BME280;34033;48.672;9.376;2024-01-27T08:57:06;100520.84;;;6.13;73.22
13312;BME280;34033;48.672;9.376;2024-01-27T08:59:31;100515.66;;;6.92;100.00
13312;BME280;34033;48.672;9.376;2024-01-27T09:01:56;100506.78;;;6.67;91.50
13312;BME280;34033;48.672;9.376;2024-01-27T09:04:22;100507.25;;;6.61;80.72
13312;BME280;34033;48.672;9.376;2024-01-27T09:06:47;100510.47;;;6.54;74.52
13312;BME280;34033;48.672;9.376;2024-01-27T09:09:12;100513.75;;;6.79;80.71
13312;BME280;34033;48.672;9.376;2024-01-27T09:11:38;100508.13;;;6.70;73.14
13312;BME280;34033;48.672;9.376;2024-01-27T09:14:04;100507.44;;;6.64;70.70
13312;BME280;34033;48.672;9.376;2024-01-27T09:16:32;100503.31;;;6.62;69.88
13312;BME280;34033;48.672;9.376;2024-01-27T09:18:57;100518.94;;;6.36;70.23
13312;BME280;34033;48.672;9.376;2024-01-27T09:21:22;100523.31;;;6.28;70.89
13312;BME280;34033;48.672;9.376;2024-01-27T09:23:56;100520.00;;;6.26;70.37
13312;BME280;34033;48.672;9.376;2024-01-27T09:26:22;100521.94;;;6.39;69.89
13312;BME280;34033;48.672;9.376;2024-01-27T09:28:48;100513.44;;;7.25;100.00
13312;BME280;34033;48.672;9.376;2024-01-27T09:31:20;100509.97;;;8.81;100.00
13312;BME280;34033;48.672;9.376;2024-01-27T09:33:48;100512.16;;;9.39;78.72
13312;BME280;34033;48.672;9.376;2024-01-27T09:36:14;100507.31;;;9.01;64.40
13312;BME280;34033;48.672;9.376;2024-01-27T09:38:39;100518.66;;;8.79;63.44
13312;BME280;34033;48.672;9.376;2024-01-27T09:41:04;100521.94;;;8.47;62.34
13312;BME280;34033;48.672;9.376;2024-01-27T09:43:30;100511.38;;;8.26;63.56
13312;BME280;34033;48.672;9.376;2024-01-27T09:45:56;100530.50;;;8.02;63.65
13312;BME280;34033;48.672;9.376;2024-01-27T09:48:21;100530.59;;;7.88;64.43
13312;BME280;34033;48.672;9.376;2024-01-27T09:50:48;100533.56;;;8.66;87.12
13312;BME280;34033;48.672;9.376;2024-01-27T09:53:14;100538.53;;;8.69;66.89
13312;BME280;34033;48.672;9.376;2024-01-27T09:55:40;100540.94;;;8.36;63.87
13312;BME280;34033;48.672;9.376;2024-01-27T09:58:05;100536.41;;;8.09;65.14
13312;BME280;34033;48.672;9.376;2024-01-27T10:00:33;100544.19;;;7.90;64.24
13312;BME280;34033;48.672;9.376;2024-01-27T10:03:01;100538.63;;;7.81;63.88
13312;BME280;34033;48.672;9.376;2024-01-27T10:05:27;100547.31;;;7.88;64.89
13312;BME280;34033;48.672;9.376;2024-01-27T10:07:52;100552.59;;;7.99;63.95
13312;BME280;34033;48.672;9.376;2024-01-27T10:10:18;100553.59;;;8.03;64.34
13312;BME280;34033;48.672;9.376;2024-01-27T10:12:44;100561.81;;;8.08;64.37
13312;BME280;34033;48.672;9.376;2024-01-27T10:15:19;100553.97;;;8.10;64.02
13312;BME280;34033;48.672;9.376;2024-01-27T10:17:45;100558.41;;;8.19;64.65
13312;BME280;34033;48.672;9.376;2024-01-27T10:20:11;100555.69;;;8.36;67.05
13312;BME280;34033;48.672;9.376;2024-01-27T10:22:42;100558.69;;;8.49;63.61
13312;BME280;34033;48.672;9.376;2024-01-27T10:25:10;100569.81;;;8.49;62.81
13312;BME280;34033;48.672;9.376;2024-01-27T10:27:35;100553.56;;;8.51;62.32
13312;BME280;34033;48.672;9.376;2024-01-27T10:30:02;100558.53;;;8.54;62.49
13312;BME280;34033;48.672;9.376;2024-01-27T10:32:27;100555.41;;;8.64;62.29
13312;BME280;34033;48.672;9.376;2024-01-27T10:35:06;100553.13;;;8.74;62.43
13312;BME280;34033;48.672;9.376;2024-01-27T10:37:37;100550.50;;;8.78;62.26
13312;BME280;34033;48.672;9.376;2024-01-27T10:40:04;100545.34;;;9.87;84.98
13312;BME280;34033;48.672;9.376;2024-01-27T10:42:30;100548.44;;;9.94;69.03
13312;BME280;34033;48.672;9.376;2024-01-27T10:44:58;100540.31;;;9.80;64.19
13312;BME280;34033;48.672;9.376;2024-01-27T10:47:29;100533.81;;;9.59;61.72
13312;BME280;34033;48.672;9.376;2024-01-27T10:49:56;100537.16;;;9.35;60.17
13312;BME280;34033;48.672;9.376;2024-01-27T10:52:31;100536.66;;;9.33;60.29
13312;BME280;34033;48.672;9.376;2024-01-27T10:55:01;100531.53;;;9.44;61.19
13312;BME280;34033;48.672;9.376;2024-01-27T10:57:29;100536.09;;;9.57;61.74
13312;BME280;34033;48.672;9.376;2024-01-27T10:59:57;100527.50;;;9.71;61.24
13312;BME280;34033;48.672;9.376;2024-01-27T11:02:23;100511.03;;;9.86;60.74
13312;BME280;34033;48.672;9.376;2024-01-27T11:04:50;100510.34;;;9.89;60.14
13312;BME280;34033;48.672;9.376;2024-01-27T11:07:19;100500.94;;;9.94;59.66
13312;BME280;34033;48.672;9.376;2024-01-27T11:09:46;100490.22;;;10.04;59.07
13312;BME280;34033;48.672;9.376;2024-01-27T11:12:13;100495.41;;;10.15;59.04
13312;BME280;34033;48.672;9.376;2024-01-27T11:14:40;100483.06;;;10.24;58.74
13312;BME280;34033;48.672;9.376;2024-01-27T11:17:05;100475.00;;;10.64;64.60
13312;BME280;34033;48.672;9.376;2024-01-27T11:19:32;100475.00;;;10.64;59.01
13312;BME280;34033;48.672;9.376;2024-01-27T11:22:04;100475.78;;;10.73;58.24
13312;BME280;34033;48.672;9.376;2024-01-27T11:24:30;100472.97;;;10.73;57.61
13312;BME280;34033;48.672;9.376;2024-01-27T11:29:27;100467.84;;;10.75;56.76
13312;BME280;34033;48.672;9.376;2024-01-27T11:31:55;100458.78;;;10.78;56.13
13312;BME280;34033;48.672;9.376;2024-01-27T11:34:23;100449.25;;;10.92;56.71
13312;BME280;34033;48.672;9.376;2024-01-27T11:36:49;100449.19;;;11.00;56.16
13312;BME280;34033;48.672;9.376;2024-01-27T11:39:27;100447.84;;;10.85;55.41
13312;BME280;34033;48.672;9.376;2024-01-27T11:41:53;100450.69;;;10.98;56.35
13312;BME280;34033;48.672;9.376;2024-01-27T11:44:29;100449.41;;;10.95;54.37
13312;BME280;34033;48.672;9.376;2024-01-27T11:46:54;100446.72;;;10.99;54.61
13312;BME280;34033;48.672;9.376;2024-01-27T11:49:19;100435.22;;;11.12;55.78
13312;BME280;34033;48.672;9.376;2024-01-27T11:51:45;100429.66;;;11.24;55.77
13312;BME280;34033;48.672;9.376;2024-01-27T11:54:10;100423.25;;;11.36;55.39
13312;BME280;34033;48.672;9.376;2024-01-27T11:56:36;100421.63;;;11.35;54.81
13312;BME280;34033;48.672;9.376;2024-01-27T11:59:02;100432.13;;;11.38;54.89
13312;BME280;34033;48.672;9.376;2024-01-27T12:01:27;100428.50;;;11.38;54.94
13312;BME280;34033;48.672;9.376;2024-01-27T12:03:53;100426.06;;;11.48;55.26
13312;BME280;34033;48.672;9.376;2024-01-27T12:06:18;100420.13;;;11.62;56.04
13312;BME280;34033;48.672;9.376;2024-01-27T12:08:44;100417.78;;;11.64;54.91
13312;BME280;34033;48.672;9.376;2024-01-27T12:11:15;100410.66;;;11.66;54.93
13312;BME280;34033;48.672;9.376;2024-01-27T12:13:41;100412.34;;;11.80;55.25
13312;BME280;34033;48.672;9.376;2024-01-27T12:16:07;100411.72;;;11.86;54.52
13312;BME280;34033;48.672;9.376;2024-01-27T12:18:34;100417.91;;;11.92;53.23
13312;BME280;34033;48.672;9.376;2024-01-27T12:21:00;100412.53;;;11.99;53.96
13312;BME280;34033;48.672;9.376;2024-01-27T12:23:25;100412.78;;;11.94;52.37
13312;BME280;34033;48.672;9.376;2024-01-27T12:25:54;100409.28;;;11.97;52.56
13312;BME280;34033;48.672;9.376;2024-01-27T12:28:24;100407.09;;;11.78;52.45
13312;BME280;34033;48.672;9.376;2024-01-27T12:30:52;100411.25;;;11.60;52.29
13312;BME280;34033;48.672;9.376;2024-01-27T12:33:17;100406.75;;;11.80;53.83
13312;BME280;34033;48.672;9.376;2024-01-27T12:35:47;100409.75;;;11.99;55.59
13312;BME280;34033;48.672;9.376;2024-01-27T12:38:12;100383.78;;;12.02;52.68
13312;BME280;34033;48.672;9.376;2024-01-27T12:40:38;100390.34;;;12.06;51.34
13312;BME280;34033;48.672;9.376;2024-01-27T12:43:03;100384.25;;;12.16;52.04
13312;BME280;34033;48.672;9.376;2024-01-27T12:45:29;100382.38;;;12.20;51.49
13312;BME280;34033;48.672;9.376;2024-01-27T12:47:55;100381.53;;;12.20;51.56
13312;BME280;34033;48.672;9.376;2024-01-27T12:50:20;100369.88;;;12.18;50.08
13312;BME280;34033;48.672;9.376;2024-01-27T12:52:45;100368.69;;;12.19;51.40